sensor_id;sensor_type;location;lat;lon;timestamp;pressure;altitude;pressure_sealevel;temperature;humidity
9439;BME280;5176;42.622;25.386;2023-04-19T19:43:22;96858.16;;;13.55;95.82
9439;BME280;5176;42.622;25.386;2023-04-19T19:45:50;96860.66;;;13.56;96.87
9439;BME280;5176;42.622;25.386;2023-04-19T19:48:19;96855.38;;;13.56;97.46
9439;BME280;5176;42.622;25.386;2023-04-19T19:50:48;96857.19;;;13.56;96.73
9439;BME280;5176;42.622;25.386;2023-04-19T19:53:17;96855.28;;;13.58;97.48
9439;BME280;5176;42.622;25.386;2023-04-19T19:55:45;96849.53;;;13.53;96.71
9439;BME280;5176;42.622;25.386;2023-04-19T19:58:14;96853.72;;;13.55;97.91
9439;BME280;5176;42.622;25.386;2023-04-19T20:00:44;96856.94;;;13.59;98.22
9439;BME280;5176;42.622;25.386;2023-04-19T20:03:13;96856.59;;;13.52;98.91
9439;BME280;5176;42.622;25.386;2023-04-19T20:05:42;96860.09;;;13.42;98.97
9439;BME280;5176;42.622;25.386;2023-04-19T20:08:11;96861.00;;;13.31;99.46
9439;BME280;5176;42.622;25.386;2023-04-19T20:10:42;96862.41;;;13.35;98.13
9439;BME280;5176;42.622;25.386;2023-04-19T20:13:11;96861.81;;;13.31;99.44
9439;BME280;5176;42.622;25.386;2023-04-19T20:15:40;96865.38;;;13.30;99.44
9439;BME280;5176;42.622;25.386;2023-04-19T20:18:12;96862.06;;;13.28;99.44
9439;BME280;5176;42.622;25.386;2023-04-19T20:20:41;96855.13;;;13.27;98.43
9439;BME280;5176;42.622;25.386;2023-04-19T20:23:10;96866.97;;;13.33;98.40
9439;BME280;5176;42.622;25.386;2023-04-19T20:25:38;96860.72;;;13.34;97.93
9439;BME280;5176;42.622;25.386;2023-04-19T20:28:07;96857.41;;;13.32;99.62
9439;BME280;5176;42.622;25.386;2023-04-19T20:30:36;96854.88;;;13.30;100.00
9439;BME280;5176;42.622;25.386;2023-04-19T20:33:04;96852.84;;;13.34;100.00
9439;BME280;5176;42.622;25.386;2023-04-19T20:35:34;96864.47;;;13.31;100.00
9439;BME280;5176;42.622;25.386;2023-04-19T20:38:03;96855.00;;;13.29;100.00
9439;BME280;5176;42.622;25.386;2023-04-19T20:40:34;96861.09;;;13.29;100.00
9439;BME280;5176;42.622;25.386;2023-04-19T20:43:02;96854.88;;;13.30;100.00
9439;BME280;5176;42.622;25.386;2023-04-19T20:45:32;96858.09;;;13.34;100.00
9439;BME280;5176;42.622;25.386;2023-04-19T20:48:01;96852.22;;;13.30;100.00
9439;BME280;5176;42.622;25.386;2023-04-19T20:50:29;96848.53;;;13.33;100.00
9439;BME280;5176;42.622;25.386;2023-04-19T20:53:00;96845.78;;;13.34;100.00
9439;BME280;5176;42.622;25.386;2023-04-19T20:55:28;96844.94;;;13.34;100.00
9439;BME280;5176;42.622;25.386;2023-04-19T20:57:57;96844.66;;;13.37;100.00
9439;BME280;5176;42.622;25.386;2023-04-19T21:00:26;96846.25;;;13.28;98.26
9439;BME280;5176;42.622;25.386;2023-04-19T21:02:55;96840.88;;;13.19;98.82
9439;BME280;5176;42.622;25.386;2023-04-19T21:05:24;96846.63;;;13.13;99.87
9439;BME280;5176;42.622;25.386;2023-04-19T21:07:53;96844.22;;;13.09;100.00
9439;BME280;5176;42.622;25.386;2023-04-19T21:10:24;96840.06;;;13.07;100.00
9439;BME280;5176;42.622;25.386;2023-04-19T21:12:53;96836.13;;;13.01;100.00
9439;BME280;5176;42.622;25.386;2023-04-19T21:15:22;96835.28;;;13.01;100.00
9439;BME280;5176;42.622;25.386;2023-04-19T21:17:51;96834.59;;;12.99;100.00
9439;BME280;5176;42.622;25.386;2023-04-19T21:20:20;96833.63;;;13.00;100.00
9439;BME280;5176;42.622;25.386;2023-04-19T21:22:50;96832.09;;;12.97;100.00
9439;BME280;5176;42.622;25.386;2023-04-19T21:25:19;96831.84;;;12.89;100.00
9439;BME280;5176;42.622;25.386;2023-04-19T21:27:49;96840.13;;;12.85;100.00
9439;BME280;5176;42.622;25.386;2023-04-19T21:30:18;96841.31;;;12.80;100.00
9439;BME280;5176;42.622;25.386;2023-04-19T21:32:48;96839.63;;;12.79;100.00
9439;BME280;5176;42.622;25.386;2023-04-19T21:35:17;96849.53;;;12.76;100.00
9439;BME280;5176;42.622;25.386;2023-04-19T21:37:46;96843.09;;;12.80;100.00
9439;BME280;5176;42.622;25.386;2023-04-19T21:40:15;96842.28;;;12.79;100.00
9439;BME280;5176;42.622;25.386;2023-04-19T21:42:42;96838.31;;;12.74;100.00
9439;BME280;5176;42.622;25.386;2023-04-19T21:45:13;96845.50;;;12.72;100.00
9439;BME280;5176;42.622;25.386;2023-04-19T21:47:42;96842.25;;;12.68;100.00
9439;BME280;5176;42.622;25.386;2023-04-19T21:50:11;96841.56;;;12.66;100.00
9439;BME280;5176;42.622;25.386;2023-04-19T21:52:40;96835.59;;;12.64;100.00
9439;BME280;5176;42.622;25.386;2023-04-19T21:55:09;96840.72;;;12.66;100.00
9439;BME280;5176;42.622;25.386;2023-04-19T21:57:38;96842.53;;;12.65;100.00
9439;BME280;5176;42.622;25.386;2023-04-19T22:00:08;96842.53;;;12.65;100.00
9439;BME280;5176;42.622;25.386;2023-04-19T22:02:39;96838.94;;;12.66;100.00
9439;BME280;5176;42.622;25.386;2023-04-19T22:05:09;96840.94;;;12.63;100.00
9439;BME280;5176;42.622;25.386;2023-04-19T22:07:39;96847.50;;;12.57;100.00
9439;BME280;5176;42.622;25.386;2023-04-19T22:10:08;96841.69;;;12.53;100.00
9439;BME280;5176;42.622;25.386;2023-04-19T22:12:37;96841.81;;;12.52;100.00
9439;BME280;5176;42.622;25.386;2023-04-19T22:15:07;96836.53;;;12.52;100.00
9439;BME280;5176;42.622;25.386;2023-04-19T22:17:38;96848.47;;;12.56;100.00
9439;BME280;5176;42.622;25.386;2023-04-19T22:20:07;96833.09;;;12.51;100.00
9439;BME280;5176;42.622;25.386;2023-04-19T22:22:38;96836.06;;;12.47;100.00
9439;BME280;5176;42.622;25.386;2023-04-19T22:25:08;96829.84;;;12.48;100.00
9439;BME280;5176;42.622;25.386;2023-04-19T22:27:37;96826.88;;;12.52;100.00
9439;BME280;5176;42.622;25.386;2023-04-19T22:30:07;96833.09;;;12.51;100.00
9439;BME280;5176;42.622;25.386;2023-04-19T22:32:35;96826.88;;;12.52;100.00
9439;BME280;5176;42.622;25.386;2023-04-19T22:35:06;96834.97;;;12.49;100.00
9439;BME280;5176;42.622;25.386;2023-04-19T22:37:36;96829.13;;;12.46;100.00
9439;BME280;5176;42.622;25.386;2023-04-19T22:40:06;96826.97;;;12.40;100.00
9439;BME280;5176;42.622;25.386;2023-04-19T22:42:35;96821.72;;;12.40;100.00
9439;BME280;5176;42.622;25.386;2023-04-19T22:45:05;96832.38;;;12.38;100.00
9439;BME280;5176;42.622;25.386;2023-04-19T22:47:34;96829.81;;;12.37;100.00
9439;BME280;5176;42.622;25.386;2023-04-19T22:50:03;96839.75;;;12.33;100.00
9439;BME280;5176;42.622;25.386;2023-04-19T22:52:33;96827.69;;;12.31;100.00
9439;BME280;5176;42.622;25.386;2023-04-19T22:55:04;96819.06;;;12.28;100.00
9439;BME280;5176;42.622;25.386;2023-04-19T22:57:33;96819.81;;;12.31;100.00
9439;BME280;5176;42.622;25.386;2023-04-19T23:00:01;96814.19;;;12.24;100.00
9439;BME280;5176;42.622;25.386;2023-04-19T23:02:31;96819.44;;;12.24;100.00
9439;BME280;5176;42.622;25.386;2023-04-19T23:04:59;96819.69;;;12.21;100.00
9439;BME280;5176;42.622;25.386;2023-04-19T23:07:29;96816.56;;;12.16;100.00
9439;BME280;5176;42.622;25.386;2023-04-19T23:10:00;96802.09;;;12.10;100.00
9439;BME280;5176;42.622;25.386;2023-04-19T23:12:29;96798.75;;;12.08;100.00
9439;BME280;5176;42.622;25.386;2023-04-19T23:14:59;96788.38;;;12.07;100.00
9439;BME280;5176;42.622;25.386;2023-04-19T23:17:28;96799.72;;;12.07;100.00
9439;BME280;5176;42.622;25.386;2023-04-19T23:19:58;96796.59;;;12.02;100.00
9439;BME280;5176;42.622;25.386;2023-04-19T23:22:27;96799.34;;;12.00;100.00
9439;BME280;5176;42.622;25.386;2023-04-19T23:24:55;96804.00;;;11.97;100.00
9439;BME280;5176;42.622;25.386;2023-04-19T23:27:26;96802.69;;;11.91;100.00
9439;BME280;5176;42.622;25.386;2023-04-19T23:29:55;96794.44;;;11.85;100.00
9439;BME280;5176;42.622;25.386;2023-04-19T23:32:24;96788.94;;;11.88;100.00
9439;BME280;5176;42.622;25.386;2023-04-19T23:34:52;96779.94;;;11.79;100.00
9439;BME280;5176;42.622;25.386;2023-04-19T23:37:21;96780.47;;;11.84;100.00
9439;BME280;5176;42.622;25.386;2023-04-19T23:39:50;96777.84;;;11.84;100.00
9439;BME280;5176;42.622;25.386;2023-04-19T23:42:18;96779.94;;;11.79;100.00
9439;BME280;5176;42.622;25.386;2023-04-19T23:44:49;96779.84;;;11.81;100.00
9439;BME280;5176;42.622;25.386;2023-04-19T23:47:20;96771.84;;;11.82;100.00
9439;BME280;5176;42.622;25.386;2023-04-19T23:49:49;96767.78;;;11.78;100.00
9439;BME280;5176;42.622;25.386;2023-04-19T23:52:18;96769.91;;;11.73;100.00
9439;BME280;5176;42.622;25.386;2023-04-19T23:54:48;96766.06;;;11.66;100.00
9439;BME280;5176;42.622;25.386;2023-04-19T23:57:17;96768.06;;;11.62;100.00
9439;BME280;5176;42.622;25.386;2023-04-19T23:59:48;96767.75;;;11.67;100.00
